Time;durP1;ratioP1;P1;durP2;ratioP2;P2;SDS_P1;SDS_P2;PMS_P1;PMS_P2;Temp;Humidity;BMP_temperature;BMP_pressure;BME280_temperature;BME280_humidity;BME280_pressure;Samples;Min_cycle;Max_cycle;Signal;HPM_P1;HPM_P2
2022/01/10 00:00:30;;;;;;;15.40;6.90;;;3.70;99.90;;;;;;5018936;28;20458;-58
2022/01/10 00:02:59;;;;;;;7.50;6.27;;;3.70;99.90;;;;;;5030883;28;21066;-58
2022/01/10 00:05:27;;;;;;;8.73;6.30;;;3.70;99.90;;;;;;5046777;28;20455;-56
2022/01/10 00:07:53;;;;;;;10.27;6.80;;;3.60;99.90;;;;;;5032312;28;20540;-58
2022/01/10 00:10:21;;;;;;;8.43;7.07;;;3.60;99.90;;;;;;5034253;28;20521;-58
2022/01/10 00:12:47;;;;;;;11.40;7.13;;;3.50;99.90;;;;;;5031685;28;20486;-53
2022/01/10 00:15:16;;;;;;;11.90;6.70;;;3.50;99.90;;;;;;5029839;28;21042;-53
2022/01/10 00:17:43;;;;;;;8.33;6.70;;;3.60;99.90;;;;;;5032863;28;20467;-58
2022/01/10 00:20:13;;;;;;;7.70;6.57;;;3.60;99.90;;;;;;5032644;28;21096;-58
2022/01/10 00:22:45;;;;;;;8.20;6.60;;;3.60;99.90;;;;;;5031762;28;20558;-58
2022/01/10 00:25:13;;;;;;;10.30;6.77;;;3.70;99.90;;;;;;5037752;28;20456;-53
2022/01/10 00:27:40;;;;;;;8.10;6.50;;;3.70;99.90;;;;;;5029504;28;20451;-53
2022/01/10 00:30:07;;;;;;;6.93;6.33;;;3.60;99.90;;;;;;5032486;28;20508;-56
2022/01/10 00:32:34;;;;;;;15.60;7.00;;;3.60;99.90;;;;;;5033919;28;20518;-55
2022/01/10 00:35:01;;;;;;;7.50;6.70;;;3.60;99.90;;;;;;5045790;28;20572;-56
2022/01/10 00:37:27;;;;;;;12.77;6.90;;;3.70;99.90;;;;;;5041699;28;20493;-57
2022/01/10 00:39:55;;;;;;;8.80;5.20;;;3.80;99.90;;;;;;5044076;28;20504;-53
2022/01/10 00:42:22;;;;;;;10.13;6.67;;;3.80;99.90;;;;;;5032155;28;21019;-56
2022/01/10 00:44:52;;;;;;;8.20;6.10;;;3.90;99.90;;;;;;5035263;28;20457;-55
2022/01/10 00:47:19;;;;;;;9.40;5.67;;;3.90;99.90;;;;;;5041525;28;20520;-54
2022/01/10 00:49:46;;;;;;;14.60;6.33;;;4.00;99.90;;;;;;5029980;28;20458;-57
2022/01/10 00:52:13;;;;;;;12.47;5.90;;;4.00;99.90;;;;;;5031802;28;20467;-58
2022/01/10 00:54:40;;;;;;;9.30;6.60;;;4.10;99.90;;;;;;5031047;28;20486;-56
2022/01/10 00:57:08;;;;;;;11.70;5.60;;;4.10;99.90;;;;;;5040884;28;20555;-58
2022/01/10 00:59:35;;;;;;;9.47;5.97;;;4.10;99.90;;;;;;5031136;28;20466;-57
2022/01/10 01:02:01;;;;;;;14.77;5.80;;;4.20;99.90;;;;;;5031644;28;20979;-56
2022/01/10 01:04:28;;;;;;;8.80;5.83;;;4.20;99.90;;;;;;5031087;28;20960;-55
2022/01/10 01:06:55;;;;;;;13.40;6.10;;;4.20;99.90;;;;;;5041242;28;20528;-53
2022/01/10 01:09:27;;;;;;;12.40;6.10;;;4.20;99.90;;;;;;5042406;28;20455;-57
2022/01/10 01:14:55;;;;;;;17.73;5.80;;;4.20;99.90;;;;;;5027905;28;20481;-59
2022/01/10 01:17:56;;;;;;;13.80;5.87;;;4.20;99.90;;;;;;5029701;28;20497;-57
2022/01/10 01:20:42;;;;;;;8.57;5.63;;;4.20;99.90;;;;;;5023973;28;20882;-57
2022/01/10 01:25:53;;;;;;;12.90;5.93;;;4.30;99.90;;;;;;5022073;28;20820;-57
2022/01/10 01:28:20;;;;;;;9.70;6.33;;;4.30;99.90;;;;;;5030719;28;20451;-57
2022/01/10 01:30:48;;;;;;;8.60;5.03;;;4.30;99.90;;;;;;5028867;28;20501;-58
2022/01/10 01:33:16;;;;;;;10.30;5.80;;;4.20;99.90;;;;;;5033168;28;20450;-53
2022/01/10 01:35:42;;;;;;;15.23;6.20;;;4.20;99.90;;;;;;5021555;28;20482;-53
2022/01/10 01:38:09;;;;;;;12.13;6.03;;;4.30;99.90;;;;;;5026918;28;20988;-56
2022/01/10 01:40:42;;;;;;;10.67;5.90;;;4.30;99.90;;;;;;5028211;28;20459;-57
2022/01/10 01:43:08;;;;;;;12.93;5.70;;;4.30;99.90;;;;;;5019450;28;20521;-59
2022/01/10 01:45:41;;;;;;;11.60;5.50;;;4.30;99.90;;;;;;5031953;28;21255;-56
2022/01/10 01:48:09;;;;;;;9.80;5.40;;;4.30;99.90;;;;;;5036722;28;21072;-54
2022/01/10 01:50:36;;;;;;;8.87;4.97;;;4.30;99.90;;;;;;5034471;28;20475;-53
2022/01/10 01:53:04;;;;;;;15.83;5.13;;;4.30;99.90;;;;;;5033323;28;20482;-58
2022/01/10 01:55:31;;;;;;;8.20;4.70;;;4.30;99.90;;;;;;5033326;28;20491;-55
2022/01/10 01:57:58;;;;;;;16.50;5.80;;;4.40;99.90;;;;;;5032107;28;20540;-54
2022/01/10 02:00:25;;;;;;;9.43;4.97;;;4.40;99.90;;;;;;5034744;28;20540;-53
2022/01/10 02:02:52;;;;;;;11.40;5.70;;;4.40;99.90;;;;;;5037233;28;20999;-53
2022/01/10 02:05:20;;;;;;;14.13;5.40;;;4.40;99.90;;;;;;5033399;28;20451;-59
2022/01/10 02:07:47;;;;;;;6.73;4.93;;;4.40;99.90;;;;;;5033171;28;22341;-56
2022/01/10 02:10:14;;;;;;;10.27;5.27;;;4.40;99.90;;;;;;5026390;28;20489;-53
2022/01/10 02:12:41;;;;;;;14.63;6.20;;;4.40;99.90;;;;;;5039472;28;20517;-60
2022/01/10 02:15:08;;;;;;;12.33;5.60;;;4.40;99.90;;;;;;5032508;28;20530;-56
2022/01/10 02:17:38;;;;;;;10.43;5.37;;;4.40;99.90;;;;;;5027408;28;20513;-58
2022/01/10 02:20:08;;;;;;;7.80;5.17;;;4.50;99.90;;;;;;5031707;28;20493;-57
2022/01/10 02:22:38;;;;;;;12.40;5.87;;;4.40;99.90;;;;;;5033416;28;20521;-53
2022/01/10 02:25:06;;;;;;;15.80;6.23;;;4.40;99.90;;;;;;5028048;28;20467;-54
2022/01/10 02:27:34;;;;;;;17.10;6.97;;;4.40;99.90;;;;;;5027983;28;20455;-53
2022/01/10 02:30:00;;;;;;;14.80;7.27;;;4.40;99.90;;;;;;5029715;28;20516;-53
2022/01/10 02:32:27;;;;;;;18.23;8.10;;;4.40;99.90;;;;;;5036023;28;20494;-58
2022/01/10 02:34:54;;;;;;;8.77;5.97;;;4.40;99.90;;;;;;5027973;28;20486;-58
2022/01/10 02:37:33;;;;;;;15.97;7.00;;;4.30;99.90;;;;;;5034618;28;20462;-56
2022/01/10 02:40:03;;;;;;;11.43;6.50;;;4.30;99.90;;;;;;5032772;28;20982;-54
2022/01/10 02:42:29;;;;;;;11.17;6.23;;;4.30;99.90;;;;;;5027262;28;20538;-54
2022/01/10 02:44:56;;;;;;;16.43;6.40;;;4.30;99.90;;;;;;5029546;28;20459;-58
2022/01/10 02:47:23;;;;;;;11.80;6.80;;;4.30;99.90;;;;;;5028809;28;20493;-53
2022/01/10 02:49:50;;;;;;;19.83;7.33;;;4.30;99.90;;;;;;5029968;28;20489;-53
2022/01/10 02:52:16;;;;;;;20.30;6.70;;;4.30;99.90;;;;;;5020950;28;20486;-58
2022/01/10 02:54:44;;;;;;;11.03;6.70;;;4.30;99.90;;;;;;5029829;28;20490;-57
2022/01/10 02:57:11;;;;;;;14.27;7.03;;;4.30;99.90;;;;;;5021084;28;20467;-55
2022/01/10 02:59:39;;;;;;;11.43;6.73;;;4.30;99.90;;;;;;5026406;28;20943;-58
2022/01/10 03:02:07;;;;;;;11.23;6.60;;;4.40;99.90;;;;;;5030056;28;20482;-54
2022/01/10 03:07:58;;;;;;;17.63;6.73;;;4.40;99.90;;;;;;5041751;28;20483;-55
2022/01/10 03:10:26;;;;;;;14.53;6.47;;;4.40;99.90;;;;;;5046588;28;20458;-54
2022/01/10 03:12:53;;;;;;;9.43;6.80;;;4.40;99.90;;;;;;5045157;28;20482;-54
2022/01/10 03:15:19;;;;;;;23.80;6.57;;;4.40;99.90;;;;;;5032595;28;20535;-55
2022/01/10 03:17:46;;;;;;;13.10;6.60;;;4.40;99.90;;;;;;5024375;28;20462;-58
2022/01/10 03:20:13;;;;;;;11.67;6.53;;;4.30;99.90;;;;;;5025254;28;20525;-58
2022/01/10 03:22:39;;;;;;;14.97;7.03;;;4.30;99.90;;;;;;5027090;28;20542;-54
2022/01/10 03:25:07;;;;;;;10.33;6.90;;;4.30;99.90;;;;;;5032863;28;20983;-53
2022/01/10 03:27:35;;;;;;;14.20;7.23;;;4.30;99.90;;;;;;5025129;28;20492;-58
2022/01/10 03:30:01;;;;;;;10.67;6.37;;;4.20;99.90;;;;;;5032269;28;20458;-56
2022/01/10 03:32:28;;;;;;;13.23;5.53;;;4.30;99.90;;;;;;5032873;28;20521;-55
2022/01/10 03:34:57;;;;;;;14.67;6.80;;;4.20;99.90;;;;;;5030748;28;20482;-58
2022/01/10 03:37:24;;;;;;;13.00;5.97;;;4.20;99.90;;;;;;5029089;28;20542;-54
2022/01/10 03:39:50;;;;;;;15.83;6.53;;;4.20;1.40;;;;;;5029988;28;20454;-53
2022/01/10 03:42:17;;;;;;;9.27;6.03;;;4.20;99.90;;;;;;5027588;28;20529;-54
2022/01/10 03:44:45;;;;;;;7.73;6.10;;;4.20;99.90;;;;;;5029318;28;20513;-58
2022/01/10 03:47:11;;;;;;;15.50;6.63;;;4.20;99.90;;;;;;5028318;28;20499;-55
2022/01/10 03:49:38;;;;;;;12.63;6.83;;;4.20;99.90;;;;;;5037050;28;20482;-55
2022/01/10 03:52:05;;;;;;;10.53;6.37;;;4.30;99.90;;;;;;5041293;28;20503;-55
2022/01/10 03:54:32;;;;;;;9.90;5.93;;;4.30;99.90;;;;;;5034700;28;20463;-55
2022/01/10 03:56:59;;;;;;;11.87;5.67;;;4.20;99.90;;;;;;5036947;28;20493;-56
2022/01/10 03:59:26;;;;;;;10.40;6.10;;;4.20;99.90;;;;;;5029146;28;20558;-57
2022/01/10 04:01:54;;;;;;;17.73;7.13;;;4.30;99.90;;;;;;5028328;28;20478;-58
2022/01/10 04:04:21;;;;;;;14.23;6.70;;;4.30;99.90;;;;;;5031149;28;20480;-58
2022/01/10 04:06:47;;;;;;;9.80;6.40;;;4.30;99.90;;;;;;5031099;28;20483;-57
2022/01/10 04:09:14;;;;;;;13.40;7.40;;;4.30;99.90;;;;;;5031379;28;20466;-57
2022/01/10 04:11:41;;;;;;;14.03;7.80;;;4.30;99.90;;;;;;5018943;28;20557;-54
2022/01/10 04:14:08;;;;;;;13.13;7.43;;;4.30;99.90;;;;;;5027816;28;20884;-58
2022/01/10 04:16:34;;;;;;;14.10;7.90;;;4.30;99.90;;;;;;5027495;28;20541;-59
2022/01/10 04:19:02;;;;;;;16.43;8.23;;;4.30;99.90;;;;;;5029022;28;20498;-58
2022/01/10 04:21:29;;;;;;;16.53;9.10;;;4.30;99.90;;;;;;5030973;28;21021;-56
2022/01/10 04:23:55;;;;;;;19.60;9.07;;;4.30;99.90;;;;;;5033095;28;20494;-55
2022/01/10 04:26:22;;;;;;;12.43;7.67;;;4.30;99.90;;;;;;5031774;28;20482;-54
2022/01/10 04:28:48;;;;;;;13.37;7.80;;;4.30;99.90;;;;;;5028932;28;20502;-55
2022/01/10 04:31:16;;;;;;;16.93;7.40;;;4.30;99.90;;;;;;5029986;28;20486;-54
2022/01/10 04:33:43;;;;;;;22.47;6.70;;;4.30;99.90;;;;;;5040429;23;20518;-47
2022/01/10 04:36:10;;;;;;;15.23;6.63;;;4.30;99.90;;;;;;5031368;28;20486;-48
2022/01/10 04:38:37;;;;;;;16.93;7.73;;;4.30;99.90;;;;;;5029953;28;20490;-48
2022/01/10 04:41:04;;;;;;;16.83;7.00;;;4.30;99.90;;;;;;5031845;28;20542;-49
2022/01/10 04:43:31;;;;;;;17.50;7.60;;;4.30;99.90;;;;;;5026502;28;21046;-47
2022/01/10 04:45:57;;;;;;;14.20;6.87;;;4.30;99.90;;;;;;5029157;28;20510;-47
2022/01/10 04:48:24;;;;;;;14.83;6.63;;;4.30;99.90;;;;;;5027981;28;20490;-48
2022/01/10 04:51:13;;;;;;;17.30;6.80;;;4.30;99.90;;;;;;5031255;28;20486;-48
2022/01/10 04:53:43;;;;;;;17.33;6.97;;;4.30;99.90;;;;;;5028843;28;20614;-48
2022/01/10 04:56:10;;;;;;;11.27;7.07;;;4.30;99.90;;;;;;5028395;28;20586;-48
2022/01/10 04:58:37;;;;;;;10.03;6.80;;;4.30;99.90;;;;;;5029389;28;20940;-47
2022/01/10 05:01:05;;;;;;;10.43;6.80;;;4.40;99.90;;;;;;5029376;28;20497;-47
2022/01/10 05:03:32;;;;;;;11.33;6.47;;;4.30;99.90;;;;;;5020728;28;21046;-47
2022/01/10 05:05:59;;;;;;;18.13;7.20;;;4.30;99.90;;;;;;5027654;28;20550;-48
2022/01/10 05:08:26;;;;;;;11.90;7.40;;;4.40;99.90;;;;;;5027172;28;20964;-47
2022/01/10 05:10:55;;;;;;;16.80;6.87;;;4.30;99.90;;;;;;5030518;28;20497;-47
2022/01/10 05:13:22;;;;;;;13.10;6.50;;;4.40;99.90;;;;;;5025965;28;20497;-48
2022/01/10 05:15:50;;;;;;;16.93;8.53;;;4.40;99.90;;;;;;5025098;28;20482;-48
2022/01/10 05:18:17;;;;;;;19.40;7.30;;;4.40;99.90;;;;;;5028640;28;20463;-47
2022/01/10 05:20:44;;;;;;;16.03;7.40;;;4.40;99.90;;;;;;5028859;28;20554;-47
2022/01/10 05:23:10;;;;;;;23.23;13.33;;;4.40;99.90;;;;;;5023986;28;20918;-48
2022/01/10 05:25:40;;;;;;;18.80;10.53;;;4.40;99.90;;;;;;5030989;28;20490;-48
2022/01/10 05:28:09;;;;;;;17.37;7.80;;;4.40;99.90;;;;;;5025853;28;20953;-48
2022/01/10 05:30:36;;;;;;;14.20;6.57;;;4.30;99.90;;;;;;5028459;28;20498;-48
2022/01/10 05:33:03;;;;;;;13.47;6.80;;;4.40;99.90;;;;;;5025103;28;20577;-47
2022/01/10 05:35:30;;;;;;;15.67;7.40;;;4.40;99.90;;;;;;5025307;28;21098;-47
2022/01/10 05:37:56;;;;;;;16.40;8.03;;;4.30;99.90;;;;;;5027292;28;21015;-47
2022/01/10 05:40:23;;;;;;;17.70;8.07;;;4.30;99.90;;;;;;5029682;28;20974;-49
2022/01/10 05:42:50;;;;;;;11.27;6.80;;;4.30;99.90;;;;;;5021288;28;20515;-47
2022/01/10 05:45:17;;;;;;;15.60;8.17;;;4.40;99.90;;;;;;5028925;28;20447;-47
2022/01/10 05:47:46;;;;;;;17.47;8.23;;;4.40;99.90;;;;;;5026587;28;21046;-47
2022/01/10 05:50:17;;;;;;;18.67;7.50;;;4.40;99.90;;;;;;5029358;28;20549;-47
2022/01/10 05:52:44;;;;;;;15.47;7.33;;;4.40;99.90;;;;;;5023348;28;20980;-47
2022/01/10 05:55:11;;;;;;;15.50;6.80;;;4.40;99.90;;;;;;5031141;28;20967;-47
2022/01/10 05:57:38;;;;;;;10.63;7.60;;;4.40;99.90;;;;;;5028528;28;20463;-47
2022/01/10 06:00:06;;;;;;;8.63;6.03;;;4.40;99.90;;;;;;5028828;28;20447;-49
2022/01/10 06:02:34;;;;;;;9.50;6.50;;;4.30;99.90;;;;;;5023181;28;21062;-48
2022/01/10 06:05:07;;;;;;;14.30;6.83;;;4.30;99.90;;;;;;5028492;28;20533;-49
2022/01/10 06:07:33;;;;;;;10.37;6.60;;;4.30;99.90;;;;;;5030145;28;20451;-48
2022/01/10 06:10:16;;;;;;;11.50;7.23;;;4.40;99.90;;;;;;5033420;28;20539;-53
2022/01/10 06:12:43;;;;;;;13.13;7.33;;;4.40;99.90;;;;;;5028538;28;20599;-52
2022/01/10 06:15:10;;;;;;;18.63;10.90;;;4.40;99.90;;;;;;5027331;28;20490;-52
2022/01/10 06:17:39;;;;;;;10.33;7.43;;;4.40;99.90;;;;;;5020481;28;21635;-52
2022/01/10 06:20:06;;;;;;;10.57;6.10;;;4.40;99.90;;;;;;5022252;28;20609;-51
2022/01/10 06:22:33;;;;;;;9.27;6.60;;;4.30;99.90;;;;;;5018323;28;20484;-52
2022/01/10 06:25:00;;;;;;;11.97;7.77;;;4.30;99.90;;;;;;5023708;28;21015;-52
2022/01/10 06:27:26;;;;;;;11.97;6.60;;;4.30;99.90;;;;;;5022165;28;20887;-51
2022/01/10 06:29:53;;;;;;;13.13;7.07;;;4.30;99.90;;;;;;5026389;28;20549;-52
2022/01/10 06:32:20;;;;;;;16.47;6.83;;;4.40;99.90;;;;;;5027838;28;20490;-53
2022/01/10 06:34:48;;;;;;;9.53;6.13;;;4.40;99.90;;;;;;5033107;28;20490;-52
2022/01/10 06:37:14;;;;;;;11.43;6.47;;;4.40;99.90;;;;;;5028381;28;20532;-51
2022/01/10 06:39:41;;;;;;;10.03;6.93;;;4.40;99.90;;;;;;5027118;28;20517;-51
2022/01/10 06:42:07;;;;;;;17.80;7.07;;;4.40;99.90;;;;;;5030694;28;20544;-52
2022/01/10 06:44:34;;;;;;;15.30;8.27;;;4.40;99.90;;;;;;5028568;28;20566;-52
2022/01/10 06:47:01;;;;;;;16.00;7.30;;;4.40;99.90;;;;;;5026645;28;20483;-51
2022/01/10 06:49:27;;;;;;;12.13;7.03;;;4.40;99.90;;;;;;5028432;28;20550;-52
2022/01/10 06:51:55;;;;;;;9.20;7.30;;;4.40;99.90;;;;;;5023732;28;20498;-50
2022/01/10 06:54:22;;;;;;;12.47;7.00;;;4.40;99.90;;;;;;5022533;28;20533;-51
2022/01/10 06:56:49;;;;;;;20.47;12.17;;;4.50;99.90;;;;;;5028001;28;20581;-51
2022/01/10 06:59:15;;;;;;;14.33;9.87;;;4.40;99.90;;;;;;5021257;28;21023;-52
2022/01/10 07:01:42;;;;;;;16.27;8.00;;;4.40;99.90;;;;;;5023152;28;20983;-52
2022/01/10 07:04:09;;;;;;;11.23;7.77;;;4.40;99.90;;;;;;5021876;28;21039;-52
2022/01/10 07:06:35;;;;;;;10.20;8.00;;;4.40;99.90;;;;;;5026009;28;20459;-52
2022/01/10 07:09:04;;;;;;;14.70;8.47;;;4.40;99.90;;;;;;5022185;28;20560;-51
2022/01/10 07:11:30;;;;;;;15.57;7.37;;;4.40;99.90;;;;;;5027634;28;20458;-51
2022/01/10 07:13:57;;;;;;;16.33;7.93;;;4.50;99.90;;;;;;5026198;28;20654;-52
2022/01/10 07:16:24;;;;;;;18.83;8.80;;;4.50;99.90;;;;;;5025764;28;20490;-53
2022/01/10 07:18:51;;;;;;;12.20;7.23;;;4.50;99.90;;;;;;5024312;28;20573;-51
2022/01/10 07:21:17;;;;;;;12.57;8.07;;;4.40;99.90;;;;;;5028098;28;20542;-52
2022/01/10 07:23:44;;;;;;;13.63;7.60;;;4.40;99.90;;;;;;5030145;28;20558;-52
2022/01/10 07:26:12;;;;;;;11.50;7.10;;;4.40;99.90;;;;;;5023492;28;20493;-52
2022/01/10 07:28:39;;;;;;;10.43;6.73;;;4.40;99.90;;;;;;5026512;28;20546;-52
2022/01/10 07:31:06;;;;;;;10.70;7.20;;;4.40;99.90;;;;;;5027962;28;20458;-52
2022/01/10 07:33:32;;;;;;;9.77;7.87;;;4.40;99.90;;;;;;5017222;28;20589;-52
2022/01/10 07:35:59;;;;;;;8.03;6.07;;;4.40;99.90;;;;;;5022461;28;22504;-52
2022/01/10 07:38:26;;;;;;;11.47;7.30;;;4.40;99.90;;;;;;5018225;28;21035;-51
2022/01/10 07:40:52;;;;;;;14.90;7.20;;;4.50;99.90;;;;;;5019991;28;20547;-51
2022/01/10 07:43:20;;;;;;;14.80;8.77;;;4.50;99.90;;;;;;5019008;28;20669;-51
2022/01/10 07:45:47;;;;;;;10.77;7.07;;;4.50;99.90;;;;;;5021682;28;20549;-52
2022/01/10 07:48:13;;;;;;;10.93;6.83;;;4.40;99.90;;;;;;5027079;28;20502;-52
2022/01/10 07:50:40;;;;;;;12.70;8.30;;;4.40;99.90;;;;;;5022839;28;20912;-52
2022/01/10 07:53:07;;;;;;;8.33;5.77;;;4.40;99.90;;;;;;5025413;28;20570;-52
2022/01/10 07:55:33;;;;;;;12.70;6.73;;;4.40;99.90;;;;;;5022293;28;20499;-52
2022/01/10 07:58:00;;;;;;;11.03;7.00;;;4.40;99.90;;;;;;5022542;28;20515;-52
2022/01/10 08:00:28;;;;;;;9.37;7.07;;;4.40;99.90;;;;;;5022397;28;20542;-52
2022/01/10 08:02:55;;;;;;;13.13;7.27;;;4.40;99.90;;;;;;5021846;28;20580;-52
2022/01/10 08:05:21;;;;;;;13.93;8.20;;;4.50;99.90;;;;;;5023977;28;20554;-51
2022/01/10 08:07:48;;;;;;;16.27;8.30;;;4.40;99.90;;;;;;5020668;28;20484;-52
2022/01/10 08:10:15;;;;;;;16.97;7.80;;;4.40;99.90;;;;;;5020353;28;20613;-52
2022/01/10 08:12:41;;;;;;;18.00;7.97;;;4.50;99.90;;;;;;5020463;28;20582;-52
2022/01/10 08:15:09;;;;;;;9.73;7.97;;;4.50;99.90;;;;;;5023248;28;20545;-52
2022/01/10 08:17:38;;;;;;;12.13;7.80;;;4.50;99.90;;;;;;5023507;28;20553;-52
2022/01/10 08:20:05;;;;;;;12.63;8.87;;;4.60;99.90;;;;;;5026434;28;21214;-52
2022/01/10 08:22:32;;;;;;;17.60;9.20;;;4.50;99.90;;;;;;5025234;28;21012;-52
2022/01/10 08:24:58;;;;;;;18.43;8.27;;;4.50;99.90;;;;;;5019722;28;20894;-52
2022/01/10 08:27:25;;;;;;;16.73;9.13;;;4.50;99.90;;;;;;5016836;28;21031;-53
2022/01/10 08:29:51;;;;;;;11.73;8.70;;;4.60;99.90;;;;;;5023627;28;20550;-52
2022/01/10 08:32:18;;;;;;;15.03;9.07;;;4.60;99.90;;;;;;5019324;28;20580;-51
2022/01/10 08:34:47;;;;;;;14.63;8.30;;;4.60;99.90;;;;;;5020547;28;20490;-51
2022/01/10 08:37:13;;;;;;;14.63;9.80;;;4.70;99.90;;;;;;5019454;28;20529;-51
2022/01/10 08:39:40;;;;;;;16.37;8.37;;;4.70;99.90;;;;;;5029329;28;20968;-51
2022/01/10 08:42:07;;;;;;;12.47;8.90;;;4.70;99.90;;;;;;5023859;28;21025;-51
2022/01/10 08:44:33;;;;;;;13.90;9.47;;;4.70;99.90;;;;;;5026864;28;20542;-50
2022/01/10 08:47:00;;;;;;;18.00;9.87;;;4.70;99.90;;;;;;5018673;28;20542;-51
2022/01/10 08:49:27;;;;;;;17.40;9.80;;;4.70;99.90;;;;;;5022546;28;20549;-52
2022/01/10 08:51:57;;;;;;;16.60;10.00;;;4.70;99.90;;;;;;5025678;28;20462;-50
2022/01/10 08:54:24;;;;;;;18.73;9.50;;;4.70;99.90;;;;;;5027671;28;20478;-52
2022/01/10 08:56:50;;;;;;;17.27;9.13;;;4.70;99.90;;;;;;5022813;28;20474;-51
2022/01/10 08:59:17;;;;;;;19.23;9.23;;;4.70;99.90;;;;;;5020680;28;20558;-51
2022/01/10 09:01:44;;;;;;;10.70;8.30;;;4.70;99.90;;;;;;5021910;28;20554;-50
2022/01/10 09:04:15;;;;;;;16.27;8.27;;;4.80;99.90;;;;;;5028844;28;20459;-51
2022/01/10 09:06:43;;;;;;;22.53;9.27;;;4.80;99.90;;;;;;5025307;28;20455;-50
2022/01/10 09:09:11;;;;;;;16.23;9.10;;;4.70;99.90;;;;;;5021438;28;21012;-50
2022/01/10 09:11:38;;;;;;;12.57;8.40;;;4.80;99.90;;;;;;5025182;28;20490;-50
2022/01/10 09:14:05;;;;;;;17.63;9.17;;;4.80;99.90;;;;;;5028026;28;20990;-50
2022/01/10 09:16:32;;;;;;;15.33;9.30;;;4.80;99.90;;;;;;5026846;28;20565;-51
2022/01/10 09:18:59;;;;;;;13.50;9.40;;;4.70;99.90;;;;;;5027917;28;20475;-50
2022/01/10 09:21:26;;;;;;;16.33;7.67;;;4.80;99.90;;;;;;5026945;28;20505;-56
2022/01/10 09:23:53;;;;;;;14.13;9.37;;;4.80;99.90;;;;;;5020291;28;20573;-51
2022/01/10 09:26:21;;;;;;;14.23;9.10;;;4.80;99.90;;;;;;5023236;28;20597;-51
2022/01/10 09:28:48;;;;;;;20.63;9.80;;;4.80;99.90;;;;;;5021448;28;20545;-51
2022/01/10 09:31:15;;;;;;;14.20;8.37;;;4.80;99.90;;;;;;5022993;28;21055;-50
2022/01/10 09:33:42;;;;;;;18.40;9.87;;;4.80;99.90;;;;;;5026985;28;20971;-51
2022/01/10 09:36:09;;;;;;;15.07;9.20;;;4.80;99.90;;;;;;5022831;28;20486;-50
2022/01/10 09:38:36;;;;;;;13.13;9.60;;;4.80;99.90;;;;;;5022708;28;20577;-51
2022/01/10 09:41:03;;;;;;;18.13;9.17;;;4.90;99.90;;;;;;5022604;28;20601;-50
2022/01/10 09:43:31;;;;;;;15.40;9.83;;;4.80;99.90;;;;;;5023492;28;20581;-50
2022/01/10 09:45:58;;;;;;;13.33;8.30;;;4.80;99.90;;;;;;5021537;28;20926;-51
2022/01/10 09:48:25;;;;;;;18.93;9.80;;;4.90;99.90;;;;;;5023773;28;20593;-53
2022/01/10 09:50:51;;;;;;;22.23;9.30;;;4.80;99.90;;;;;;5023679;28;20562;-49
2022/01/10 09:53:21;;;;;;;21.57;10.33;;;4.80;99.90;;;;;;5020239;28;20483;-51
2022/01/10 09:55:48;;;;;;;15.70;9.73;;;4.80;99.90;;;;;;5022080;28;20466;-51
2022/01/10 09:58:15;;;;;;;17.23;10.10;;;4.80;99.90;;;;;;5019671;28;20486;-52
2022/01/10 10:00:45;;;;;;;12.30;8.20;;;4.80;99.90;;;;;;5021258;28;20582;-51
2022/01/10 10:03:11;;;;;;;10.87;8.00;;;4.70;99.90;;;;;;5023181;28;20487;-51
2022/01/10 10:05:38;;;;;;;19.30;8.67;;;4.60;99.90;;;;;;5021671;28;20541;-51
2022/01/10 10:08:05;;;;;;;9.97;7.77;;;4.70;99.90;;;;;;5022765;28;21645;-50
2022/01/10 10:10:32;;;;;;;10.33;7.27;;;4.70;99.90;;;;;;5026331;28;20557;-50
2022/01/10 10:12:59;;;;;;;9.43;6.50;;;4.70;99.90;;;;;;5025555;28;21548;-51
2022/01/10 10:15:30;;;;;;;7.30;6.00;;;4.80;99.90;;;;;;5017601;28;20562;-50
2022/01/10 10:17:58;;;;;;;7.03;5.60;;;4.80;99.90;;;;;;5027267;28;20490;-50
2022/01/10 10:20:25;;;;;;;7.07;6.00;;;4.80;99.90;;;;;;5023099;28;20464;-50
2022/01/10 10:22:54;;;;;;;7.33;5.97;;;4.90;99.90;;;;;;5025289;28;20478;-51
2022/01/10 10:25:21;;;;;;;7.57;5.10;;;4.90;99.90;;;;;;5025748;28;20467;-50
2022/01/10 10:27:49;;;;;;;9.70;6.30;;;5.00;99.90;;;;;;5026648;28;20937;-51
2022/01/10 10:30:18;;;;;;;7.20;5.40;;;5.00;99.90;;;;;;5027207;28;20554;-51
2022/01/10 10:35:12;;;;;;;9.10;5.50;;;5.00;99.90;;;;;;5054138;22;20533;-54
2022/01/10 10:37:40;;;;;;;9.47;5.67;;;5.00;99.90;;;;;;5045264;28;20297;-54
2022/01/10 10:40:10;;;;;;;5.20;4.50;;;5.00;99.90;;;;;;5042109;28;20557;-54
2022/01/10 10:42:39;;;;;;;5.83;5.27;;;5.00;99.90;;;;;;5044358;28;20579;-53
2022/01/10 10:45:07;;;;;;;5.57;4.90;;;5.00;99.90;;;;;;5023591;28;20560;-54
2022/01/10 10:47:35;;;;;;;5.57;4.83;;;5.00;99.90;;;;;;5021110;28;20497;-53
2022/01/10 10:50:05;;;;;;;8.90;5.37;;;5.00;99.90;;;;;;5020636;28;20465;-53
2022/01/10 10:52:34;;;;;;;12.23;5.57;;;5.10;99.90;;;;;;5028075;28;20520;-54
2022/01/10 10:55:06;;;;;;;8.83;4.90;;;5.00;99.90;;;;;;5028851;28;20574;-54
2022/01/10 10:57:33;;;;;;;5.23;4.73;;;5.00;99.90;;;;;;5028389;28;20479;-54
2022/01/10 11:00:00;;;;;;;7.90;5.47;;;5.00;99.90;;;;;;5033029;28;20542;-53
2022/01/10 11:02:27;;;;;;;10.17;6.30;;;5.00;99.90;;;;;;5026816;28;20463;-54
2022/01/10 11:04:54;;;;;;;5.77;5.17;;;5.00;99.90;;;;;;5028483;28;20491;-54
2022/01/10 11:07:24;;;;;;;11.60;5.60;;;5.10;99.90;;;;;;5028515;28;20505;-53
2022/01/10 11:09:52;;;;;;;5.80;5.07;;;5.20;99.90;;;;;;5030346;28;20470;-53
2022/01/10 11:12:23;;;;;;;7.17;5.47;;;5.20;99.90;;;;;;5030264;28;20501;-54
2022/01/10 11:14:51;;;;;;;7.67;6.40;;;5.20;99.90;;;;;;5030576;28;20858;-55
2022/01/10 11:17:20;;;;;;;8.47;6.07;;;5.20;99.90;;;;;;5028801;28;20528;-54
2022/01/10 11:20:08;;;;;;;14.53;6.27;;;5.10;99.90;;;;;;5026302;28;20564;-54
2022/01/10 11:22:35;;;;;;;9.10;5.67;;;5.10;99.90;;;;;;5025922;28;20477;-55
2022/01/10 11:25:03;;;;;;;8.23;5.73;;;5.10;99.90;;;;;;5025086;28;20510;-54
2022/01/10 11:27:31;;;;;;;6.77;6.13;;;5.10;99.90;;;;;;5028070;28;20964;-54
2022/01/10 11:29:59;;;;;;;6.47;5.80;;;5.10;99.90;;;;;;5029577;28;21041;-54
2022/01/10 11:32:51;;;;;;;6.60;5.70;;;5.10;99.90;;;;;;5028571;28;20493;-53
2022/01/10 11:35:19;;;;;;;7.50;6.30;;;5.20;99.90;;;;;;5029412;28;20471;-54
2022/01/10 11:37:46;;;;;;;9.63;6.00;;;5.20;99.90;;;;;;5032375;28;20980;-53
2022/01/10 11:40:15;;;;;;;7.90;6.67;;;5.20;99.90;;;;;;5031715;28;20502;-54
2022/01/10 11:42:45;;;;;;;6.70;5.90;;;5.20;99.90;;;;;;5026849;28;20458;-54
2022/01/10 11:45:15;;;;;;;6.87;4.20;;;5.20;99.90;;;;;;5025710;28;21016;-53
2022/01/10 11:48:14;;;;;;;6.63;4.40;;;5.20;99.90;;;;;;5029341;28;20455;-54
2022/01/10 11:50:43;;;;;;;6.40;4.47;;;5.10;99.90;;;;;;5018876;28;20463;-54
2022/01/10 11:53:09;;;;;;;5.37;4.87;;;5.00;99.90;;;;;;5029301;28;20513;-54
2022/01/10 11:55:44;;;;;;;6.80;4.80;;;5.10;99.90;;;;;;5029750;28;20458;-54
2022/01/10 11:58:16;;;;;;;7.50;4.80;;;5.10;99.90;;;;;;5030804;28;20514;-54
2022/01/10 12:00:43;;;;;;;5.50;5.00;;;5.10;99.90;;;;;;5023168;28;20512;-53
2022/01/10 12:03:10;;;;;;;5.77;5.27;;;5.10;99.90;;;;;;5030544;28;20527;-54
2022/01/10 12:05:36;;;;;;;6.53;5.27;;;5.10;99.90;;;;;;5031370;28;20490;-54
2022/01/10 12:08:04;;;;;;;5.70;5.20;;;5.00;99.90;;;;;;5029666;28;21006;-54
2022/01/10 12:10:31;;;;;;;7.27;4.87;;;5.00;99.90;;;;;;5027443;28;20494;-53
2022/01/10 12:13:05;;;;;;;4.90;4.50;;;4.90;99.90;;;;;;5027355;28;20489;-54
2022/01/10 12:15:33;;;;;;;5.47;4.97;;;4.80;99.90;;;;;;5020161;28;20471;-54
2022/01/10 12:18:00;;;;;;;8.33;5.80;;;4.90;99.90;;;;;;5027825;28;20538;-54
2022/01/10 12:20:26;;;;;;;4.77;4.37;;;4.90;99.90;;;;;;5028749;28;20614;-53
2022/01/10 12:22:53;;;;;;;5.27;4.77;;;4.90;99.90;;;;;;5025143;28;20486;-54
2022/01/10 12:25:20;;;;;;;5.87;4.83;;;4.80;99.90;;;;;;5022739;28;20462;-54
2022/01/10 12:27:48;;;;;;;4.77;4.37;;;4.80;99.90;;;;;;5018653;28;20563;-54
2022/01/10 12:30:16;;;;;;;4.97;4.20;;;4.80;99.90;;;;;;5027538;28;20474;-53
2022/01/10 12:32:45;;;;;;;5.27;4.40;;;4.80;99.90;;;;;;5028429;28;20462;-54
2022/01/10 12:35:12;;;;;;;5.30;4.80;;;4.90;99.90;;;;;;5023820;28;20470;-54
2022/01/10 12:37:38;;;;;;;11.40;5.17;;;5.00;99.90;;;;;;5027432;28;20482;-53
2022/01/10 12:40:07;;;;;;;6.53;5.90;;;5.00;99.90;;;;;;5019511;28;20569;-55
2022/01/10 12:42:34;;;;;;;6.17;5.47;;;5.10;99.90;;;;;;5024584;28;20520;-54
2022/01/10 12:45:00;;;;;;;6.20;5.17;;;5.10;99.90;;;;;;5021288;28;20593;-54
2022/01/10 12:47:28;;;;;;;5.40;5.00;;;5.10;99.90;;;;;;5022202;28;20467;-54
2022/01/10 12:49:55;;;;;;;4.73;4.33;;;5.20;99.90;;;;;;5031827;28;20891;-54
2022/01/10 12:52:23;;;;;;;7.50;4.40;;;5.20;99.90;;;;;;5024904;28;20550;-54
2022/01/10 12:54:50;;;;;;;4.57;4.17;;;5.20;99.90;;;;;;5029173;28;21074;-54
2022/01/10 12:57:17;;;;;;;4.67;4.27;;;5.20;99.90;;;;;;5027657;28;20545;-54
2022/01/10 12:59:45;;;;;;;4.90;4.60;;;5.30;99.90;;;;;;5029337;28;20482;-54
2022/01/10 13:02:12;;;;;;;5.30;4.90;;;5.30;99.90;;;;;;5028492;28;20463;-54
2022/01/10 13:04:42;;;;;;;6.60;4.40;;;5.30;99.90;;;;;;5028802;28;20886;-54